Myrtle Beach, SC

8:47 PM EDT on April 25, 2017 (GMT -0400)
Green Lake | | Change Station

Elev 39 ft 33.78 °N, 78.78 °W | Updated 30 seconds ago

Overcast
Overcast
64.6 °F
Feels Like 64.6 °F
N
0.0
Wind Variable Wind from NNE
Gusts 2.0 mph

Today
High -- | Low -- °F
--% Chance of Precip.
Yesterday
High -- | Low -- °F
Precip. -- in
Pressure 29.71 in
Visibility 10.0 miles
Clouds Overcast 3800 ft
Dew Point 61 °F
Humidity 88%
Rainfall 0.00 in
Snow Depth Not available.
6:32 AM 7:54 PM
Waning Crescent, 0% visible
METAR KCRE 252353Z 29008KT 10SM OVC038 18/15 A2971 RMK AO1 SLP061 T01780150 10200 20178 53015
Pressure 29.71 in
Visibility 10.0 miles
Clouds Overcast 3800 ft
Dew Point 61 °F
Humidity 88%
Rainfall 0.00 in
Snow Depth Not available.
6:32 AM 7:54 PM
Waning Crescent, 0% visible
METAR KCRE 252353Z 29008KT 10SM OVC038 18/15 A2971 RMK AO1 SLP061 T01780150 10200 20178 53015

Get Severe Weather Alerts

Thanks for signing up!

Be on the lookout for a verification email in your inbox.

You'll start receiving the daily forecast at 8 AM.

×

10-Day Weather Forecast

Almanac

Astronomy

Apr. 25, 2017 Rise Set
Actual Time
Civil Twilight
Nautical Twilight
Astronomical Twilight
Moon
Length of Visible Light
Length of Day
Tomorrow will be .
, % of the Moon is Illuminated

Today's Extremes

State Highs State Lows

Community

WunderPhotos

WunderBlog® & News

Nearby

Air Quality

  Air Quality AQ Index Pollutant
Not available.

Snow Depth

Station Depth Elevation

Earthquake Activity

City Distance Mag. Time & Date
Minimum magnitude displayed is 2.5.

Coastal Water Temperatures

Place Temperature

Stations

Nearby Weather Stations

Station Location Temp. Windchill Dew Point Humidity Wind Precip. Elev Updated Type
                   

Watches & Warnings

There are currently no watches in effect.